createdAt,value
2022-10-31T00:01:16.964Z,5.50
2022-10-31T00:03:43.536Z,5.45
2022-10-31T00:06:10.171Z,4.55
2022-10-31T00:08:37.008Z,5.55
2022-10-31T00:11:03.864Z,4.65
2022-10-31T00:13:30.527Z,5.85
2022-10-31T00:15:57.238Z,5.22
2022-10-31T00:18:23.803Z,4.80
2022-10-31T00:20:50.376Z,4.90
2022-10-31T00:23:16.991Z,4.63
2022-10-31T00:25:43.792Z,4.95
2022-10-31T00:28:12.659Z,7.80
2022-10-31T00:30:39.557Z,4.03
2022-10-31T00:33:06.372Z,3.20
2022-10-31T00:35:33.443Z,4.03
2022-10-31T00:38:00.391Z,4.30
2022-10-31T00:40:27.081Z,4.40
2022-10-31T00:42:53.823Z,5.10
2022-10-31T00:45:20.472Z,3.00
2022-10-31T00:47:47.068Z,4.43
2022-10-31T00:50:13.866Z,2.95
2022-10-31T00:52:40.452Z,3.15
2022-10-31T00:55:07.470Z,3.42
2022-10-31T00:57:34.061Z,4.50
2022-10-31T01:00:00.749Z,3.63
2022-10-31T01:02:27.694Z,4.10
2022-10-31T01:04:54.421Z,4.18
2022-10-31T01:07:21.072Z,6.15
2022-10-31T01:09:47.685Z,3.45
2022-10-31T01:12:14.281Z,4.85
2022-10-31T01:14:45.721Z,4.60
2022-10-31T01:17:13.160Z,3.83
2022-10-31T01:19:40.280Z,3.30
2022-10-31T01:22:07.399Z,3.50
2022-10-31T01:24:34.153Z,2.92
2022-10-31T01:27:00.962Z,3.65
2022-10-31T01:29:27.599Z,4.25
2022-10-31T01:31:54.153Z,2.85
2022-10-31T01:34:21.040Z,3.15
2022-10-31T01:36:52.100Z,3.40
2022-10-31T01:39:20.189Z,2.70
2022-10-31T01:41:52.544Z,3.72
2022-10-31T01:44:50.820Z,4.88
2022-10-31T01:47:22.283Z,3.28
2022-10-31T01:49:53.751Z,4.50
2022-10-31T01:52:31.796Z,5.80
2022-10-31T01:55:06.808Z,4.30
2022-10-31T01:57:36.409Z,4.18
2022-10-31T02:00:07.887Z,4.53
2022-10-31T02:02:34.757Z,4.45
2022-10-31T02:05:03.695Z,4.30
2022-10-31T02:07:40.669Z,2.85
2022-10-31T02:10:08.288Z,2.63
2022-10-31T02:12:37.244Z,2.67
2022-10-31T02:15:05.149Z,3.22
2022-10-31T02:17:32.853Z,2.58
2022-10-31T02:20:17.066Z,3.75
2022-10-31T02:23:28.513Z,3.60
2022-10-31T02:26:27.383Z,4.00
2022-10-31T02:29:21.317Z,4.15
2022-10-31T02:32:14.888Z,2.65
2022-10-31T02:35:26.044Z,4.55
2022-10-31T02:38:02.617Z,3.80
2022-10-31T02:40:37.088Z,4.75
2022-10-31T02:46:18.969Z,2.03
2022-10-31T02:48:49.365Z,2.33
2022-10-31T02:51:17.545Z,3.17
2022-10-31T02:53:44.353Z,2.67
2022-10-31T02:56:17.360Z,2.80
2022-10-31T02:58:55.487Z,1.90
2022-10-31T03:01:40.803Z,2.20
2022-10-31T03:04:36.115Z,3.00
2022-10-31T03:07:17.101Z,2.22
2022-10-31T03:10:18.813Z,2.75
2022-10-31T03:12:59.723Z,2.00
2022-10-31T03:15:35.548Z,3.63
2022-10-31T03:18:33.990Z,2.30
2022-10-31T03:21:11.402Z,1.80
2022-10-31T03:23:40.213Z,2.03
2022-10-31T03:26:10.693Z,2.03
2022-10-31T03:28:44.526Z,1.70
2022-10-31T03:31:17.316Z,2.28
2022-10-31T03:33:46.108Z,2.10
2022-10-31T03:36:15.894Z,2.15
2022-10-31T03:38:44.739Z,1.90
2022-10-31T03:41:17.332Z,2.42
2022-10-31T03:43:51.889Z,1.75
2022-10-31T03:46:19.064Z,1.98
2022-10-31T03:48:45.948Z,2.10
2022-10-31T03:51:31.341Z,2.10
2022-10-31T03:54:14.644Z,1.55
2022-10-31T03:56:54.389Z,2.67
2022-10-31T03:59:35.272Z,1.67
2022-10-31T04:02:14.582Z,2.97
2022-10-31T04:04:42.639Z,2.45
2022-10-31T04:07:11.434Z,1.88
2022-10-31T04:09:41.749Z,1.50
2022-10-31T04:12:11.411Z,1.70
2022-10-31T04:14:42.815Z,2.20
2022-10-31T04:17:15.002Z,1.67
2022-10-31T04:19:41.677Z,1.63
2022-10-31T04:22:08.343Z,2.08
2022-10-31T04:24:34.926Z,2.22
2022-10-31T04:27:01.521Z,2.70
2022-10-31T04:29:28.332Z,2.13
2022-10-31T04:31:55.111Z,1.30
2022-10-31T04:34:21.717Z,1.52
2022-10-31T04:36:48.354Z,1.70
2022-10-31T04:39:14.944Z,1.48
2022-10-31T04:41:41.789Z,3.22
2022-10-31T04:44:08.581Z,1.42
2022-10-31T04:46:35.172Z,3.45
2022-10-31T04:49:01.990Z,1.50
2022-10-31T04:51:28.616Z,1.38
2022-10-31T04:53:55.389Z,2.63
2022-10-31T04:56:23.075Z,1.50
2022-10-31T04:58:49.683Z,2.15
2022-10-31T05:01:16.452Z,2.17
2022-10-31T05:03:43.135Z,1.98
2022-10-31T05:06:10.081Z,1.30
2022-10-31T05:08:36.874Z,1.60
2022-10-31T05:11:04.989Z,1.23
2022-10-31T05:13:32.173Z,1.67
2022-10-31T05:15:58.759Z,1.45
2022-10-31T05:18:25.768Z,1.30
2022-10-31T05:20:52.577Z,1.67
2022-10-31T05:23:19.178Z,1.63
2022-10-31T05:25:45.823Z,1.80
2022-10-31T05:28:12.461Z,3.55
2022-10-31T05:30:39.070Z,1.48
2022-10-31T05:33:05.724Z,1.42
2022-10-31T05:35:33.492Z,2.72
2022-10-31T05:38:00.817Z,1.83
2022-10-31T05:40:28.401Z,1.40
2022-10-31T05:42:56.566Z,2.65
2022-10-31T05:45:23.752Z,1.70
2022-10-31T05:48:00.743Z,3.50
2022-10-31T05:50:30.238Z,1.77
2022-10-31T05:53:02.476Z,1.15
2022-10-31T05:57:56.705Z,66.95
2022-10-31T06:00:24.806Z,77.45
2022-10-31T06:02:59.136Z,69.97
2022-10-31T06:05:26.023Z,68.80
2022-10-31T06:07:52.804Z,57.85
2022-10-31T06:10:21.872Z,58.15
2022-10-31T06:12:49.293Z,28.98
2022-10-31T06:15:21.048Z,22.17
2022-10-31T06:18:00.502Z,18.98
2022-10-31T06:20:27.708Z,16.60
2022-10-31T06:22:54.293Z,15.18
2022-10-31T06:25:21.025Z,16.33
2022-10-31T06:27:47.687Z,14.38
2022-10-31T06:30:14.960Z,9.57
2022-10-31T06:32:41.581Z,13.40
2022-10-31T06:35:08.457Z,12.13
2022-10-31T06:37:35.024Z,9.75
2022-10-31T06:40:01.720Z,6.78
2022-10-31T06:42:28.507Z,7.15
2022-10-31T06:44:55.167Z,6.38
2022-10-31T06:47:21.737Z,6.07
2022-10-31T06:49:48.345Z,5.03
2022-10-31T06:52:15.093Z,6.13
2022-10-31T06:54:41.944Z,4.03
2022-10-31T06:57:08.512Z,3.00
2022-10-31T06:59:35.092Z,4.68
2022-10-31T07:02:01.916Z,5.63
2022-10-31T07:04:28.586Z,8.80
2022-10-31T07:06:55.360Z,4.93
2022-10-31T07:09:22.098Z,2.75
2022-10-31T07:11:48.694Z,2.00
2022-10-31T07:14:15.275Z,6.47
2022-10-31T07:16:41.904Z,18.40
2022-10-31T07:19:08.836Z,13.75
2022-10-31T07:21:35.398Z,21.00
2022-10-31T07:24:02.061Z,10.77
2022-10-31T07:26:28.901Z,7.97
2022-10-31T07:28:55.483Z,7.45
2022-10-31T07:31:22.412Z,12.75
2022-10-31T07:33:48.997Z,7.68
2022-10-31T07:36:16.565Z,8.32
2022-10-31T07:38:43.376Z,3.97
2022-10-31T07:41:10.722Z,3.22
2022-10-31T07:43:37.527Z,4.30
2022-10-31T07:46:04.133Z,6.47
2022-10-31T07:48:30.725Z,3.10
2022-10-31T07:50:57.341Z,5.85
2022-10-31T07:53:24.048Z,2.67
2022-10-31T07:55:50.682Z,4.32
2022-10-31T07:58:18.058Z,4.40
2022-10-31T08:00:46.555Z,3.65
2022-10-31T08:03:15.482Z,3.97
2022-10-31T08:05:42.419Z,2.15
2022-10-31T08:08:09.804Z,2.35
2022-10-31T08:10:37.224Z,3.50
2022-10-31T08:13:06.690Z,2.70
2022-10-31T08:15:35.259Z,3.78
2022-10-31T08:18:03.199Z,1.38
2022-10-31T08:20:30.428Z,2.05
2022-10-31T08:23:02.033Z,2.55
2022-10-31T08:25:33.868Z,1.95
2022-10-31T08:28:04.729Z,3.72
2022-10-31T08:30:33.927Z,2.58
2022-10-31T08:33:11.754Z,2.20
2022-10-31T08:35:38.465Z,1.83
2022-10-31T08:38:05.522Z,2.70
2022-10-31T08:40:34.029Z,6.13
2022-10-31T08:43:15.072Z,2.08
2022-10-31T08:45:42.319Z,1.70
2022-10-31T08:48:14.300Z,1.35
2022-10-31T08:50:41.486Z,1.60
2022-10-31T08:53:12.352Z,2.25
2022-10-31T08:55:40.419Z,1.70
2022-10-31T08:58:10.459Z,2.03
2022-10-31T09:00:37.436Z,1.50
2022-10-31T09:03:13.068Z,1.60
2022-10-31T09:05:40.392Z,1.45
2022-10-31T09:08:13.082Z,2.88
2022-10-31T09:10:43.359Z,1.50
2022-10-31T09:13:15.682Z,2.58
2022-10-31T09:15:44.753Z,6.47
2022-10-31T09:18:12.761Z,1.30
2022-10-31T09:20:41.001Z,2.03
2022-10-31T09:23:11.185Z,2.75
2022-10-31T09:25:38.620Z,1.52
2022-10-31T09:28:06.970Z,4.57
2022-10-31T09:30:35.798Z,1.90
2022-10-31T09:33:05.260Z,3.38
2022-10-31T09:35:32.149Z,1.77
2022-10-31T09:38:01.163Z,2.35
2022-10-31T09:40:43.864Z,2.38
2022-10-31T09:46:36.979Z,3.05
2022-10-31T09:50:01.864Z,2.30
2022-10-31T09:52:35.216Z,1.85
2022-10-31T09:55:10.243Z,1.50
2022-10-31T09:57:38.141Z,4.30
2022-10-31T10:00:06.892Z,2.53
2022-10-31T10:02:41.780Z,7.45
2022-10-31T10:05:15.716Z,3.13
2022-10-31T10:07:54.949Z,4.10
2022-10-31T10:10:56.012Z,4.72
2022-10-31T10:13:52.893Z,2.65
2022-10-31T10:16:46.638Z,4.13
2022-10-31T10:25:52.659Z,4.80
2022-10-31T10:28:40.883Z,2.35
2022-10-31T10:31:20.734Z,3.20
2022-10-31T10:34:07.114Z,8.95
2022-10-31T10:39:49.126Z,3.25
2022-10-31T10:42:35.548Z,4.35
2022-10-31T10:45:34.548Z,3.25
2022-10-31T10:48:10.542Z,2.70
2022-10-31T10:50:43.320Z,4.13
2022-10-31T10:53:33.606Z,3.65
2022-10-31T10:59:39.388Z,4.63
2022-10-31T11:02:18.553Z,3.88
2022-10-31T11:04:49.945Z,5.60
2022-10-31T11:07:16.623Z,4.50
2022-10-31T11:09:43.426Z,3.20
2022-10-31T11:12:43.984Z,4.25
2022-10-31T11:15:24.453Z,6.47
2022-10-31T11:17:53.580Z,3.47
2022-10-31T11:20:36.985Z,3.40
2022-10-31T11:23:16.685Z,5.95
2022-10-31T11:25:50.828Z,3.67
2022-10-31T11:28:17.670Z,2.80
2022-10-31T11:30:56.944Z,7.93
2022-10-31T11:33:33.994Z,3.15
2022-10-31T11:36:03.218Z,3.15
2022-10-31T11:38:36.521Z,2.90
2022-10-31T11:41:37.493Z,13.63
2022-10-31T11:44:11.836Z,5.57
2022-10-31T11:46:45.723Z,4.35
2022-10-31T11:49:37.005Z,7.38
2022-10-31T11:52:15.243Z,4.20
2022-10-31T11:55:03.312Z,2.63
2022-10-31T11:57:54.772Z,7.65
2022-10-31T12:00:42.861Z,3.30
2022-10-31T12:03:52.597Z,4.35
2022-10-31T12:06:39.784Z,4.95
2022-10-31T12:09:36.527Z,3.97
2022-10-31T12:12:48.690Z,3.00
2022-10-31T12:15:32.429Z,6.67
2022-10-31T12:18:38.011Z,4.03
2022-10-31T12:21:58.533Z,4.25
2022-10-31T12:24:55.238Z,3.92
2022-10-31T12:28:20.609Z,6.50
2022-10-31T12:31:12.141Z,4.85
2022-10-31T12:34:00.892Z,3.83
2022-10-31T12:37:16.927Z,3.63
2022-10-31T12:40:07.391Z,2.60
2022-10-31T12:43:11.009Z,5.45
2022-10-31T12:45:57.264Z,2.97
2022-10-31T12:49:10.585Z,4.03
2022-10-31T13:14:36.585Z,6.07
2022-10-31T13:17:03.684Z,5.72
2022-10-31T13:19:39.535Z,5.43
2022-10-31T13:22:30.350Z,4.75
2022-10-31T13:25:14.803Z,8.35
2022-10-31T13:27:54.051Z,6.97
2022-10-31T13:30:23.475Z,39.17
2022-10-31T13:33:10.429Z,22.48
2022-10-31T13:35:52.366Z,12.35
2022-10-31T13:38:31.980Z,12.63
2022-10-31T13:41:21.683Z,14.35
2022-10-31T13:44:03.741Z,14.10
2022-10-31T13:46:40.070Z,14.77
2022-10-31T13:49:38.216Z,10.68
2022-10-31T13:52:17.143Z,13.35
2022-10-31T13:54:48.859Z,12.40
2022-10-31T13:57:45.968Z,21.40
2022-10-31T14:00:26.967Z,18.40
2022-10-31T14:02:57.576Z,15.23
2022-10-31T14:05:30.968Z,18.23
2022-10-31T14:08:00.451Z,12.65
2022-10-31T14:10:30.339Z,14.00
2022-10-31T14:13:46.347Z,13.98
2022-10-31T14:16:27.138Z,14.52
2022-10-31T14:19:16.075Z,15.93
2022-10-31T14:21:44.582Z,12.80
2022-10-31T14:24:44.893Z,17.90
2022-10-31T14:27:47.356Z,13.70
2022-10-31T14:30:20.007Z,13.23
2022-10-31T14:33:01.593Z,26.88
2022-10-31T14:35:43.933Z,85.53
2022-10-31T14:38:37.788Z,15.55
2022-10-31T14:41:56.519Z,16.63
2022-10-31T14:44:57.325Z,12.65
2022-10-31T14:47:56.857Z,13.27
2022-10-31T14:50:50.516Z,14.02
2022-10-31T14:53:27.551Z,20.05
2022-10-31T14:55:56.657Z,15.90
2022-10-31T14:58:47.186Z,13.07
2022-10-31T15:01:27.703Z,13.73
2022-10-31T15:07:21.847Z,19.98
2022-10-31T15:10:07.183Z,22.58
2022-10-31T15:12:38.544Z,22.35
2022-10-31T15:15:23.347Z,16.63
2022-10-31T15:17:56.733Z,18.75
2022-10-31T15:20:27.310Z,24.80
2022-10-31T15:22:57.092Z,20.88
2022-10-31T15:25:25.842Z,20.65
2022-10-31T15:27:53.765Z,21.85
2022-10-31T15:30:23.527Z,24.65
2022-10-31T15:32:58.354Z,28.42
2022-10-31T15:35:30.813Z,31.30
2022-10-31T15:37:59.413Z,27.55
2022-10-31T15:40:27.877Z,27.58
2022-10-31T15:43:04.997Z,23.23
2022-10-31T15:45:32.571Z,29.73
2022-10-31T15:48:05.963Z,31.30
2022-10-31T15:50:38.669Z,33.03
2022-10-31T15:53:07.211Z,33.72
2022-10-31T15:55:39.640Z,30.98
2022-10-31T16:00:39.641Z,30.23
2022-10-31T16:03:35.458Z,30.05
2022-10-31T16:06:05.103Z,28.00
2022-10-31T16:08:36.842Z,26.83
2022-10-31T16:11:44.006Z,31.63
2022-10-31T16:14:34.650Z,31.85
2022-10-31T16:17:02.472Z,30.02
2022-10-31T16:19:36.534Z,37.13
2022-10-31T16:22:30.999Z,27.30
2022-10-31T16:25:37.863Z,33.97
2022-10-31T16:28:17.199Z,31.52
2022-10-31T16:30:49.959Z,35.47
2022-10-31T16:33:48.913Z,45.35
2022-10-31T16:36:35.914Z,30.15
2022-10-31T16:39:03.790Z,35.22
2022-10-31T16:41:30.477Z,35.42
2022-10-31T16:43:57.179Z,35.67
2022-10-31T16:46:26.477Z,28.58
2022-10-31T16:48:53.618Z,39.72
2022-10-31T16:51:20.855Z,26.77
2022-10-31T16:53:47.514Z,19.45
2022-10-31T16:56:23.565Z,29.80
2022-10-31T16:58:50.176Z,21.75
2022-10-31T17:01:17.219Z,18.42
2022-10-31T17:03:43.892Z,19.52
2022-10-31T17:06:14.591Z,17.08
2022-10-31T17:08:41.787Z,18.92
2022-10-31T17:11:18.729Z,15.60
2022-10-31T17:13:45.582Z,19.00
2022-10-31T17:16:14.399Z,15.57
2022-10-31T17:18:41.558Z,19.55
2022-10-31T17:21:17.320Z,21.00
2022-10-31T17:23:45.032Z,13.80
2022-10-31T17:26:11.848Z,16.75
2022-10-31T17:28:38.519Z,13.85
2022-10-31T17:31:06.124Z,15.80
2022-10-31T17:33:33.743Z,12.80
2022-10-31T17:36:02.962Z,12.07
2022-10-31T17:38:29.761Z,10.93
2022-10-31T17:40:56.382Z,13.15
2022-10-31T17:43:27.048Z,15.65
2022-10-31T17:45:53.765Z,13.32
2022-10-31T17:48:20.399Z,9.10
2022-10-31T17:50:47.165Z,13.20
2022-10-31T17:53:13.751Z,13.02
2022-10-31T17:55:40.369Z,8.55
2022-10-31T17:58:06.949Z,7.28
2022-10-31T18:00:34.195Z,9.90
2022-10-31T18:03:03.372Z,8.43
2022-10-31T18:05:30.416Z,6.80
2022-10-31T18:07:59.592Z,6.68
2022-10-31T18:10:30.183Z,8.48
2022-10-31T18:12:56.761Z,6.47
2022-10-31T18:15:23.428Z,7.70
2022-10-31T18:17:50.016Z,6.32
2022-10-31T18:20:16.676Z,8.63
2022-10-31T18:22:43.369Z,7.78
2022-10-31T18:25:10.031Z,6.88
2022-10-31T18:27:36.778Z,5.65
2022-10-31T18:30:03.824Z,5.20
2022-10-31T18:32:30.424Z,5.05
2022-10-31T18:34:57.210Z,5.10
2022-10-31T18:37:23.832Z,6.38
2022-10-31T18:39:50.473Z,5.15
2022-10-31T18:42:17.038Z,4.85
2022-10-31T18:44:43.848Z,4.20
2022-10-31T18:47:10.777Z,5.50
2022-10-31T18:49:37.512Z,4.03
2022-10-31T18:52:05.582Z,4.85
2022-10-31T18:54:33.040Z,6.63
2022-10-31T18:56:59.628Z,6.68
2022-10-31T18:59:26.348Z,3.88
2022-10-31T19:01:53.311Z,4.55
2022-10-31T19:04:20.015Z,6.82
2022-10-31T19:06:46.615Z,4.75
2022-10-31T19:09:13.249Z,4.28
2022-10-31T19:11:40.101Z,4.60
2022-10-31T19:14:13.068Z,7.07
2022-10-31T19:16:40.027Z,6.18
2022-10-31T19:19:07.856Z,7.32
2022-10-31T19:21:34.469Z,4.57
2022-10-31T19:24:01.634Z,3.90
2022-10-31T19:26:28.588Z,5.43
2022-10-31T19:28:56.537Z,4.10
2022-10-31T19:31:23.214Z,4.63
2022-10-31T19:33:49.877Z,6.28
2022-10-31T19:36:18.792Z,6.07
2022-10-31T19:38:47.606Z,3.97
2022-10-31T19:41:19.847Z,4.57
2022-10-31T19:46:27.680Z,4.40
2022-10-31T19:49:05.311Z,6.03
2022-10-31T19:51:38.101Z,4.40
2022-10-31T19:54:04.981Z,4.30
2022-10-31T19:56:41.197Z,3.65
2022-10-31T19:59:11.834Z,3.90
2022-10-31T20:01:41.773Z,4.43
2022-10-31T20:04:11.190Z,4.07
2022-10-31T20:06:40.266Z,4.47
2022-10-31T20:09:16.230Z,4.63
2022-10-31T20:11:44.727Z,8.23
2022-10-31T20:14:14.290Z,5.53
2022-10-31T20:16:41.225Z,5.07
2022-10-31T20:19:08.578Z,3.72
2022-10-31T20:21:40.613Z,4.63
2022-10-31T20:24:09.996Z,4.18
2022-10-31T20:26:40.509Z,4.68
2022-10-31T20:29:07.436Z,5.35
2022-10-31T20:31:35.943Z,10.27
2022-10-31T20:34:02.608Z,6.60
2022-10-31T20:36:30.947Z,6.30
2022-10-31T20:38:58.561Z,5.35
2022-10-31T20:41:25.356Z,5.40
2022-10-31T20:43:55.233Z,7.93
2022-10-31T20:46:25.810Z,6.70
2022-10-31T20:48:52.848Z,5.93
2022-10-31T20:51:24.820Z,3.70
2022-10-31T20:53:53.007Z,4.40
2022-10-31T20:56:22.051Z,6.15
2022-10-31T20:58:49.634Z,9.00
2022-10-31T21:01:19.210Z,4.32
2022-10-31T21:03:46.781Z,5.95
2022-10-31T21:06:13.735Z,4.82
2022-10-31T21:08:43.048Z,3.70
2022-10-31T21:11:16.355Z,7.55
2022-10-31T21:13:46.375Z,5.65
2022-10-31T21:16:18.437Z,5.75
2022-10-31T21:18:46.265Z,3.58
2022-10-31T21:21:18.557Z,4.47
2022-10-31T21:26:16.155Z,5.80
2022-10-31T21:28:43.338Z,4.80
2022-10-31T21:31:13.865Z,4.07
2022-10-31T21:33:41.326Z,7.68
2022-10-31T21:36:11.376Z,4.50
2022-10-31T21:38:38.798Z,4.07
2022-10-31T21:41:15.729Z,5.22
2022-10-31T21:43:45.655Z,4.32
2022-10-31T21:46:17.653Z,4.03
2022-10-31T21:48:45.533Z,4.00
2022-10-31T21:51:24.097Z,4.63
2022-10-31T21:54:09.209Z,6.32
2022-10-31T21:56:36.277Z,4.32
2022-10-31T21:59:03.108Z,5.50
2022-10-31T22:01:29.901Z,5.70
2022-10-31T22:03:57.470Z,6.50
2022-10-31T22:06:26.616Z,7.47
2022-10-31T22:08:54.544Z,5.75
2022-10-31T22:11:22.912Z,5.63
2022-10-31T22:13:50.184Z,5.47
2022-10-31T22:16:19.098Z,5.95
2022-10-31T22:18:46.517Z,6.57
2022-10-31T22:21:18.877Z,6.63
2022-10-31T22:23:56.654Z,6.85
2022-10-31T22:26:23.717Z,6.32
2022-10-31T22:28:59.488Z,5.93
2022-10-31T22:31:27.125Z,7.43
2022-10-31T22:33:53.966Z,6.00
2022-10-31T22:36:23.413Z,5.65
2022-10-31T22:38:50.672Z,6.55
2022-10-31T22:41:25.550Z,5.97
2022-10-31T22:43:52.596Z,7.90
2022-10-31T22:46:23.319Z,7.50
2022-10-31T22:48:58.880Z,5.53
2022-10-31T22:51:27.993Z,6.97
2022-10-31T22:53:56.753Z,7.55
2022-10-31T22:56:26.471Z,5.00
2022-10-31T22:58:53.072Z,6.65
2022-10-31T23:01:22.234Z,4.50
2022-10-31T23:03:50.016Z,5.25
2022-10-31T23:06:19.416Z,6.75
2022-10-31T23:08:46.659Z,4.28
2022-10-31T23:11:34.526Z,5.18
2022-10-31T23:14:09.540Z,5.63
2022-10-31T23:16:44.696Z,5.80
2022-10-31T23:19:15.051Z,5.45
2022-10-31T23:22:02.377Z,5.60
2022-10-31T23:24:37.485Z,7.70
2022-10-31T23:27:09.874Z,5.95
2022-10-31T23:29:56.907Z,7.35
2022-10-31T23:32:37.558Z,8.27
2022-10-31T23:35:09.275Z,5.18
2022-10-31T23:37:38.500Z,6.95
2022-10-31T23:40:08.119Z,4.95
2022-10-31T23:42:35.334Z,8.15
2022-10-31T23:45:01.955Z,6.40
2022-10-31T23:47:28.545Z,6.85
2022-10-31T23:49:55.365Z,3.90
2022-10-31T23:52:21.957Z,8.02
2022-10-31T23:54:48.520Z,7.78
2022-10-31T23:57:15.809Z,9.50
2022-10-31T23:59:42.761Z,6.88
